Terminal Aerodrome Forecast
Issued by NWS

Home | Current Version | Previous Version | Text Only | Print | Product List | Glossary On
Versions: 1 2 3 4 5 6 7 8 9 10 11 12 13 14 15 16 17 18 19
000
FTUS41 KAKQ 210700 AAA
TAFPHF
TAF AMD
KPHF 210706Z 2107/2206 04009KT P6SM SCT007 OVC025
      TEMPO 2107/2109 5SM BR BKN007
     FM211400 03011KT P6SM SCT035
     FM211700 04007KT P6SM SKC
     FM220100 09005KT P6SM SKC=

USA.gov is the U.S. government's official web portal to all federal, state and local government web resources and services.